Wetterdaten: Woche 31.10.16 - 06.11.16 (KW44)
Datum Zeit Temp. A. Feuchte A. Luftdruck Regen Wind Richtung Sonnenschein ET UV Solar Taupunkt Windchill Windben Empfang
31.10.2016 00:00 6,1 C 94 % 1029,1 hPa 0,0 l/m 2,0 km/h (1 Bft) SW 0,00 h 0,000 mm 0,0 UV-I 0 W/m 5,1 C 6,1 C 3,6 km/h (1 Bft) 97,93 %
31.10.2016 01:00 6,0 C 95 % 1029,1 hPa 0,0 l/m 0,0 km/h (0 Bft) N 0,00 h 0,000 mm 0,0 UV-I 0 W/m 5,2 C 6,0 C 0,1 km/h (0 Bft) 99,42 %
31.10.2016 02:00 5,5 C 95 % 1028,7 hPa 0,0 l/m 0,2 km/h (0 Bft) SW 0,00 h 0,000 mm 0,0 UV-I 0 W/m 4,8 C 5,5 C 0,5 km/h (0 Bft) 98,30 %
31.10.2016 03:00 4,8 C 96 % 1028,8 hPa 0,0 l/m 3,1 km/h (1 Bft) NO 0,00 h 0,000 mm 0,0 UV-I 0 W/m 4,3 C 4,8 C 4,9 km/h (1 Bft) 99,34 %
31.10.2016 04:00 3,6 C 97 % 1028,8 hPa 0,0 l/m 1,4 km/h (1 Bft) NO 0,00 h 0,000 mm 0,0 UV-I 0 W/m 3,2 C 3,6 C 2,3 km/h (1 Bft) 98,45 %
31.10.2016 05:00 2,9 C 97 % 1028,8 hPa 0,0 l/m 0,8 km/h (0 Bft) NO 0,00 h 0,000 mm 0,0 UV-I 0 W/m 2,5 C 2,9 C 1,7 km/h (1 Bft) 98,65 %
31.10.2016 06:00 2,1 C 97 % 1028,9 hPa 0,0 l/m 0,3 km/h (0 Bft) NO 0,00 h 0,000 mm 0,0 UV-I 6 W/m 1,8 C 2,1 C 0,5 km/h (0 Bft) 98,56 %
31.10.2016 07:00 3,2 C 98 % 1029,4 hPa 0,2 l/m 1,1 km/h (0 Bft) NO 0,03 h 0,000 mm 0,0 UV-I 30 W/m 3,0 C 3,2 C 2,3 km/h (1 Bft) 98,38 %
31.10.2016 08:00 3,8 C 98 % 1029,7 hPa 0,0 l/m 1,3 km/h (1 Bft) NO 0,00 h 0,000 mm 0,0 UV-I 86 W/m 3,5 C 3,8 C 3,3 km/h (1 Bft) 98,68 %
31.10.2016 09:00 4,3 C 98 % 1029,8 hPa 0,0 l/m 2,2 km/h (1 Bft) NO 0,00 h 0,025 mm 0,5 UV-I 133 W/m 4,1 C 4,3 C 4,1 km/h (1 Bft) 98,44 %
31.10.2016 10:00 5,3 C 98 % 1029,7 hPa 0,0 l/m 1,6 km/h (1 Bft) O-NO 0,43 h 0,051 mm 0,9 UV-I 279 W/m 5,1 C 5,3 C 3,3 km/h (1 Bft) 98,96 %
31.10.2016 11:00 7,5 C 95 % 1029,1 hPa 0,0 l/m 2,3 km/h (1 Bft) O 1,00 h 0,127 mm 1,4 UV-I 481 W/m 6,8 C 7,5 C 4,4 km/h (1 Bft) 98,57 %
31.10.2016 12:00 9,2 C 86 % 1028,3 hPa 0,0 l/m 1,7 km/h (1 Bft) NW 1,00 h 0,203 mm 1,4 UV-I 464 W/m 6,9 C 9,2 C 4,1 km/h (1 Bft) 97,84 %
31.10.2016 13:00 10,3 C 77 % 1027,5 hPa 0,0 l/m 2,3 km/h (1 Bft) W-NW 1,00 h 0,204 mm 1,0 UV-I 404 W/m 6,5 C 10,3 C 4,7 km/h (1 Bft) 99,05 %
31.10.2016 14:00 10,4 C 75 % 1027,3 hPa 0,0 l/m 4,2 km/h (1 Bft) N-NO 1,00 h 0,203 mm 0,6 UV-I 277 W/m 6,2 C 10,4 C 6,9 km/h (2 Bft) 98,38 %
31.10.2016 15:00 10,0 C 76 % 1027,0 hPa 0,0 l/m 2,2 km/h (1 Bft) N-NO 1,00 h 0,152 mm 0,0 UV-I 153 W/m 6,0 C 10,0 C 3,9 km/h (1 Bft) 99,23 %
31.10.2016 16:00 8,5 C 83 % 1026,4 hPa 0,0 l/m 0,4 km/h (0 Bft) O-NO 0,60 h 0,076 mm 0,0 UV-I 34 W/m 5,7 C 8,5 C 1,2 km/h (1 Bft) 99,54 %
31.10.2016 17:00 6,3 C 89 % 1026,4 hPa 0,0 l/m 0,8 km/h (0 Bft) O-NO 0,00 h 0,026 mm 0,0 UV-I 4 W/m 4,7 C 6,3 C 1,7 km/h (1 Bft) 98,87 %
31.10.2016 18:00 5,1 C 92 % 1026,7 hPa 0,0 l/m 1,6 km/h (1 Bft) O 0,00 h 0,000 mm 0,0 UV-I 0 W/m 3,9 C 5,1 C 2,8 km/h (1 Bft) 98,54 %
31.10.2016 19:00 4,5 C 93 % 1026,8 hPa 0,0 l/m 1,1 km/h (1 Bft) O-SO 0,00 h 0,000 mm 0,0 UV-I 0 W/m 3,5 C 4,5 C 2,2 km/h (1 Bft) 98,91 %
31.10.2016 20:00 4,0 C 95 % 1027,1 hPa 0,0 l/m 1,0 km/h (0 Bft) O-SO 0,00 h 0,000 mm 0,0 UV-I 0 W/m 3,2 C 4,0 C 1,7 km/h (1 Bft) 97,65 %
31.10.2016 21:00 3,6 C 96 % 1027,1 hPa 0,0 l/m 2,2 km/h (1 Bft) O-SO 0,00 h 0,000 mm 0,0 UV-I 0 W/m 3,0 C 3,6 C 3,7 km/h (1 Bft) 99,11 %
31.10.2016 22:00 3,4 C 96 % 1027,1 hPa 0,0 l/m 2,2 km/h (1 Bft) O-SO 0,00 h 0,000 mm 0,0 UV-I 0 W/m 2,9 C 3,4 C 3,6 km/h (1 Bft) 98,23 %
31.10.2016 23:00 3,0 C 97 % 1027,1 hPa 0,0 l/m 0,5 km/h (0 Bft) O-SO 0,00 h 0,000 mm 0,0 UV-I 0 W/m 2,5 C 3,0 C 1,5 km/h (1 Bft) 99,18 %
01.11.2016 00:00 2,9 C 97 % 1026,8 hPa 0,0 l/m 1,4 km/h (1 Bft) O-SO 0,00 h 0,000 mm 0,0 UV-I 0 W/m 2,5 C 2,9 C 2,9 km/h (1 Bft) 95,62 %
01.11.2016 01:00 2,3 C 97 % 1026,4 hPa 0,0 l/m 0,7 km/h (0 Bft) O-SO 0,00 h 0,000 mm 0,0 UV-I 0 W/m 1,9 C 2,3 C 1,4 km/h (1 Bft) 98,28 %
01.11.2016 02:00 1,7 C 97 % 1025,9 hPa 0,0 l/m 0,9 km/h (0 Bft) O-SO 0,00 h 0,000 mm 0,0 UV-I 0 W/m 1,3 C 1,7 C 1,6 km/h (1 Bft) 99,24 %
01.11.2016 03:00 1,4 C 97 % 1025,4 hPa 0,0 l/m 0,8 km/h (0 Bft) O-SO 0,00 h 0,000 mm 0,0 UV-I 0 W/m 1,0 C 1,4 C 1,8 km/h (1 Bft) 98,34 %
01.11.2016 04:00 1,3 C 97 % 1025,0 hPa 0,0 l/m 1,0 km/h (0 Bft) O-SO 0,00 h 0,000 mm 0,0 UV-I 0 W/m 0,9 C 1,3 C 1,8 km/h (1 Bft) 99,19 %
01.11.2016 05:00 1,0 C 97 % 1024,5 hPa 0,0 l/m 0,3 km/h (0 Bft) O-SO 0,00 h 0,000 mm 0,0 UV-I 0 W/m 0,6 C 1,0 C 0,7 km/h (0 Bft) 97,90 %
01.11.2016 06:00 0,9 C 98 % 1024,5 hPa 0,0 l/m 0,3 km/h (0 Bft) O-SO 0,00 h 0,000 mm 0,0 UV-I 7 W/m 0,5 C 0,9 C 1,0 km/h (0 Bft) 99,57 %
01.11.2016 07:00 0,4 C 98 % 1024,7 hPa 0,0 l/m 0,6 km/h (0 Bft) O-SO 0,20 h 0,000 mm 0,0 UV-I 41 W/m 0,1 C 0,4 C 1,2 km/h (1 Bft) 98,02 %
01.11.2016 08:00 1,9 C 98 % 1024,6 hPa 0,0 l/m 0,2 km/h (0 Bft) N 0,70 h 0,025 mm 0,5 UV-I 163 W/m 1,6 C 1,9 C 0,9 km/h (0 Bft) 99,11 %
01.11.2016 09:00 4,6 C 97 % 1024,1 hPa 0,0 l/m 0,6 km/h (0 Bft) O-NO 1,00 h 0,051 mm 0,7 UV-I 321 W/m 4,2 C 4,6 C 2,2 km/h (1 Bft) 98,41 %
01.11.2016 10:00 5,8 C 96 % 1023,9 hPa 0,2 l/m 2,7 km/h (1 Bft) NO 0,97 h 0,127 mm 1,0 UV-I 355 W/m 5,1 C 5,8 C 5,4 km/h (1 Bft) 98,41 %
01.11.2016 11:00 6,8 C 94 % 1023,0 hPa 0,0 l/m 2,9 km/h (1 Bft) NO 1,00 h 0,153 mm 1,3 UV-I 429 W/m 5,8 C 6,8 C 5,1 km/h (1 Bft) 99,52 %
01.11.2016 12:00 8,4 C 88 % 1022,0 hPa 0,0 l/m 3,0 km/h (1 Bft) N-NO 1,00 h 0,177 mm 1,2 UV-I 422 W/m 6,5 C 8,4 C 5,8 km/h (2 Bft) 98,53 %
01.11.2016 13:00 9,9 C 83 % 1020,9 hPa 0,0 l/m 2,9 km/h (1 Bft) NO 1,00 h 0,178 mm 1,0 UV-I 382 W/m 7,2 C 9,9 C 5,2 km/h (1 Bft) 98,43 %
01.11.2016 14:00 10,7 C 76 % 1019,9 hPa 0,0 l/m 1,7 km/h (1 Bft) NO 1,00 h 0,178 mm 0,6 UV-I 287 W/m 6,7 C 10,7 C 3,3 km/h (1 Bft) 99,53 %
01.11.2016 15:00 10,6 C 77 % 1019,0 hPa 0,0 l/m 1,2 km/h (1 Bft) O-NO 1,00 h 0,127 mm 0,0 UV-I 151 W/m 6,7 C 10,6 C 2,7 km/h (1 Bft) 99,65 %
01.11.2016 16:00 9,4 C 83 % 1018,3 hPa 0,0 l/m 0,5 km/h (0 Bft) O-NO 0,57 h 0,076 mm 0,0 UV-I 36 W/m 6,6 C 9,4 C 1,2 km/h (1 Bft) 98,27 %
01.11.2016 17:00 6,8 C 90 % 1018,0 hPa 0,0 l/m 0,7 km/h (0 Bft) O-NO 0,00 h 0,026 mm 0,0 UV-I 5 W/m 5,4 C 6,8 C 1,8 km/h (1 Bft) 97,88 %
01.11.2016 18:00 5,9 C 93 % 1017,7 hPa 0,0 l/m 1,8 km/h (1 Bft) SO 0,00 h 0,000 mm 0,0 UV-I 0 W/m 4,8 C 5,9 C 3,1 km/h (1 Bft) 99,32 %
01.11.2016 19:00 5,4 C 94 % 1017,3 hPa 0,0 l/m 2,8 km/h (1 Bft) S-SO 0,00 h 0,000 mm 0,0 UV-I 0 W/m 4,6 C 5,4 C 4,1 km/h (1 Bft) 97,88 %
01.11.2016 20:00 5,4 C 95 % 1017,0 hPa 0,0 l/m 2,4 km/h (1 Bft) S-SO 0,00 h 0,000 mm 0,0 UV-I 0 W/m 4,7 C 5,4 C 4,2 km/h (1 Bft) 98,80 %
01.11.2016 21:00 5,1 C 96 % 1016,9 hPa 0,0 l/m 2,0 km/h (1 Bft) S-SO 0,00 h 0,000 mm 0,0 UV-I 0 W/m 4,5 C 5,1 C 4,3 km/h (1 Bft) 98,65 %
01.11.2016 22:00 4,8 C 97 % 1016,7 hPa 0,0 l/m 2,0 km/h (1 Bft) S 0,00 h 0,000 mm 0,0 UV-I 0 W/m 4,3 C 4,8 C 4,1 km/h (1 Bft) 97,87 %
01.11.2016 23:00 4,4 C 97 % 1016,4 hPa 0,0 l/m 2,4 km/h (1 Bft) S 0,00 h 0,000 mm 0,0 UV-I 0 W/m 3,9 C 4,4 C 4,2 km/h (1 Bft) 98,54 %
02.11.2016 00:00 4,4 C 97 % 1016,1 hPa 0,0 l/m 3,7 km/h (1 Bft) W-SW 0,00 h 0,000 mm 0,0 UV-I 0 W/m 4,0 C 4,4 C 6,2 km/h (2 Bft) 98,03 %
02.11.2016 01:00 5,1 C 98 % 1016,0 hPa 0,0 l/m 4,9 km/h (1 Bft) W-SW 0,00 h 0,000 mm 0,0 UV-I 0 W/m 4,8 C 5,0 C 10,2 km/h (2 Bft) 99,17 %
02.11.2016 02:00 5,1 C 98 % 1015,9 hPa 0,0 l/m 5,9 km/h (2 Bft) W 0,00 h 0,000 mm 0,0 UV-I 0 W/m 4,8 C 4,8 C 10,1 km/h (2 Bft) 98,28 %
02.11.2016 03:00 5,3 C 98 % 1015,8 hPa 0,0 l/m 3,5 km/h (1 Bft) W 0,00 h 0,000 mm 0,0 UV-I 0 W/m 5,0 C 5,3 C 5,8 km/h (2 Bft) 99,45 %
02.11.2016 04:00 5,5 C 98 % 1015,6 hPa 0,0 l/m 4,0 km/h (1 Bft) W 0,00 h 0,000 mm 0,0 UV-I 0 W/m 5,2 C 5,5 C 6,5 km/h (2 Bft) 98,13 %
02.11.2016 05:00 5,8 C 98 % 1015,4 hPa 0,0 l/m 5,3 km/h (1 Bft) W 0,00 h 0,000 mm 0,0 UV-I 0 W/m 5,5 C 5,6 C 8,3 km/h (2 Bft) 99,38 %
02.11.2016 06:00 7,2 C 97 % 1015,0 hPa 0,0 l/m 10,2 km/h (2 Bft) W-SW 0,00 h 0,000 mm 0,0 UV-I 4 W/m 6,7 C 4,5 C 15,0 km/h (3 Bft) 97,95 %
02.11.2016 07:00 8,6 C 92 % 1015,0 hPa 0,0 l/m 12,5 km/h (3 Bft) W-SW 0,00 h 0,000 mm 0,0 UV-I 25 W/m 7,4 C 4,8 C 17,9 km/h (3 Bft) 99,61 %
02.11.2016 08:00 9,4 C 88 % 1014,9 hPa 0,0 l/m 12,7 km/h (3 Bft) W-SW 0,00 h 0,025 mm 0,0 UV-I 64 W/m 7,6 C 5,6 C 19,2 km/h (3 Bft) 97,59 %
02.11.2016 09:00 10,2 C 85 % 1014,8 hPa 0,0 l/m 12,5 km/h (3 Bft) W-SW 0,00 h 0,051 mm 0,0 UV-I 84 W/m 7,8 C 6,6 C 19,1 km/h (3 Bft) 99,51 %
02.11.2016 10:00 10,6 C 83 % 1014,7 hPa 0,0 l/m 14,0 km/h (3 Bft) W-SW 0,00 h 0,051 mm 0,0 UV-I 42 W/m 7,9 C 6,5 C 23,7 km/h (4 Bft) 98,22 %
02.11.2016 11:00 10,1 C 88 % 1014,4 hPa 0,0 l/m 15,6 km/h (3 Bft) W-SW 0,00 h 0,051 mm 0,5 UV-I 86 W/m 8,1 C 5,0 C 25,5 km/h (4 Bft) 99,53 %
02.11.2016 12:00 8,1 C 89 % 1014,6 hPa 0,2 l/m 11,3 km/h (2 Bft) W 0,00 h 0,051 mm 0,0 UV-I 55 W/m 6,3 C 5,0 C 21,7 km/h (4 Bft) 98,15 %
02.11.2016 13:00 6,9 C 92 % 1014,9 hPa 0,4 l/m 12,0 km/h (2 Bft) W 0,00 h 0,025 mm 0,0 UV-I 47 W/m 5,6 C 3,1 C 21,8 km/h (4 Bft) 99,39 %
02.11.2016 14:00 6,6 C 92 % 1015,2 hPa 0,2 l/m 14,4 km/h (3 Bft) W-SW 0,00 h 0,025 mm 0,0 UV-I 31 W/m 5,4 C 1,4 C 21,5 km/h (4 Bft) 98,64 %
02.11.2016 15:00 6,2 C 93 % 1015,6 hPa 0,6 l/m 13,9 km/h (3 Bft) W-SW 0,00 h 0,026 mm 0,0 UV-I 21 W/m 5,1 C 1,2 C 21,2 km/h (4 Bft) 98,95 %
02.11.2016 16:00 5,8 C 93 % 1016,1 hPa 0,4 l/m 15,0 km/h (3 Bft) SW 0,00 h 0,025 mm 0,0 UV-I 8 W/m 4,7 C 0,1 C 23,4 km/h (4 Bft) 98,68 %
02.11.2016 17:00 5,1 C 93 % 1016,6 hPa 0,2 l/m 15,6 km/h (3 Bft) W-SW 0,00 h 0,000 mm 0,0 UV-I 0 W/m 4,1 C -1,0 C 24,2 km/h (4 Bft) 98,94 %
02.11.2016 18:00 5,1 C 92 % 1017,2 hPa 0,0 l/m 17,1 km/h (3 Bft) W-SW 0,00 h 0,000 mm 0,0 UV-I 0 W/m 3,9 C -1,8 C 26,2 km/h (4 Bft) 99,15 %
02.11.2016 19:00 5,1 C 92 % 1017,6 hPa 0,0 l/m 13,7 km/h (3 Bft) W-SW 0,00 h 0,026 mm 0,0 UV-I 0 W/m 3,9 C -0,0 C 21,8 km/h (4 Bft) 97,97 %
02.11.2016 20:00 5,4 C 91 % 1017,8 hPa 0,0 l/m 14,3 km/h (3 Bft) SW 0,00 h 0,000 mm 0,0 UV-I 0 W/m 4,0 C -0,0 C 22,0 km/h (4 Bft) 99,37 %
02.11.2016 21:00 5,6 C 89 % 1017,9 hPa 0,0 l/m 16,6 km/h (3 Bft) W-SW 0,00 h 0,025 mm 0,0 UV-I 0 W/m 3,9 C -0,9 C 25,3 km/h (4 Bft) 98,07 %
02.11.2016 22:00 5,6 C 89 % 1018,1 hPa 0,0 l/m 16,1 km/h (3 Bft) SW 0,00 h 0,025 mm 0,0 UV-I 0 W/m 3,9 C -0,8 C 23,9 km/h (4 Bft) 99,34 %
02.11.2016 23:00 5,7 C 89 % 1018,1 hPa 0,0 l/m 14,0 km/h (3 Bft) SW 0,00 h 0,026 mm 0,0 UV-I 0 W/m 4,0 C 0,4 C 21,5 km/h (4 Bft) 97,98 %
03.11.2016 00:00 5,7 C 89 % 1018,1 hPa 0,0 l/m 12,4 km/h (3 Bft) W-SW 0,00 h 0,000 mm 0,0 UV-I 0 W/m 4,0 C 1,3 C 19,1 km/h (3 Bft) 99,35 %
03.11.2016 01:00 5,1 C 90 % 1018,5 hPa 0,0 l/m 10,2 km/h (2 Bft) W-SW 0,00 h 0,025 mm 0,0 UV-I 0 W/m 3,7 C 2,1 C 15,2 km/h (3 Bft) 97,77 %
03.11.2016 02:00 4,3 C 91 % 1018,6 hPa 0,0 l/m 9,4 km/h (2 Bft) SW 0,00 h 0,000 mm 0,0 UV-I 0 W/m 3,0 C 1,8 C 13,9 km/h (3 Bft) 99,66 %
03.11.2016 03:00 3,7 C 93 % 1018,6 hPa 0,0 l/m 8,8 km/h (2 Bft) SW 0,00 h 0,000 mm 0,0 UV-I 0 W/m 2,7 C 1,6 C 13,4 km/h (3 Bft) 98,04 %
03.11.2016 04:00 3,5 C 93 % 1019,0 hPa 0,0 l/m 11,4 km/h (2 Bft) SW 0,00 h 0,000 mm 0,0 UV-I 0 W/m 2,5 C -0,5 C 16,8 km/h (3 Bft) 99,08 %
03.11.2016 05:00 3,6 C 92 % 1019,4 hPa 0,0 l/m 12,0 km/h (2 Bft) W-SW 0,00 h 0,000 mm 0,0 UV-I 0 W/m 2,5 C -0,8 C 18,0 km/h (3 Bft) 98,67 %
03.11.2016 06:00 4,2 C 90 % 1019,8 hPa 0,0 l/m 11,5 km/h (2 Bft) W-SW 0,00 h 0,000 mm 0,0 UV-I 5 W/m 2,7 C 0,3 C 17,1 km/h (3 Bft) 98,89 %
03.11.2016 07:00 4,6 C 88 % 1020,6 hPa 0,0 l/m 7,4 km/h (2 Bft) W-SW 0,00 h 0,000 mm 0,0 UV-I 10 W/m 2,8 C 3,4 C 12,4 km/h (3 Bft) 99,46 %
03.11.2016 08:00 4,8 C 89 % 1021,2 hPa 0,0 l/m 7,8 km/h (2 Bft) SW 0,00 h 0,000 mm 0,0 UV-I 45 W/m 3,2 C 3,4 C 12,7 km/h (3 Bft) 98,30 %
03.11.2016 09:00 5,5 C 88 % 1021,6 hPa 0,0 l/m 11,8 km/h (2 Bft) SW 0,00 h 0,026 mm 0,5 UV-I 143 W/m 3,8 C 1,5 C 18,2 km/h (3 Bft) 98,97 %
03.11.2016 10:00 6,4 C 85 % 1022,1 hPa 0,0 l/m 10,2 km/h (2 Bft) W-SW 0,00 h 0,076 mm 0,5 UV-I 170 W/m 4,1 C 3,6 C 16,6 km/h (3 Bft) 98,61 %
03.11.2016 11:00 6,9 C 80 % 1022,0 hPa 0,0 l/m 9,8 km/h (2 Bft) W 0,00 h 0,076 mm 0,6 UV-I 164 W/m 3,7 C 4,4 C 17,1 km/h (3 Bft) 98,88 %
03.11.2016 12:00 7,5 C 77 % 1021,8 hPa 0,0 l/m 12,1 km/h (2 Bft) W-SW 0,47 h 0,102 mm 0,7 UV-I 267 W/m 3,7 C 3,7 C 19,8 km/h (3 Bft) 98,54 %
03.11.2016 13:00 7,3 C 77 % 1021,7 hPa 0,0 l/m 10,0 km/h (2 Bft) W 0,07 h 0,152 mm 0,5 UV-I 168 W/m 3,5 C 4,7 C 16,5 km/h (3 Bft) 98,06 %
03.11.2016 14:00 7,1 C 78 % 1021,7 hPa 0,0 l/m 8,7 km/h (2 Bft) W 0,00 h 0,102 mm 0,0 UV-I 82 W/m 3,5 C 5,3 C 13,8 km/h (3 Bft) 99,31 %
03.11.2016 15:00 7,3 C 78 % 1021,9 hPa 0,0 l/m 3,7 km/h (1 Bft) W 0,67 h 0,051 mm 0,0 UV-I 114 W/m 3,8 C 7,2 C 7,5 km/h (2 Bft) 97,66 %
03.11.2016 16:00 6,1 C 83 % 1022,1 hPa 0,0 l/m 2,0 km/h (1 Bft) W 0,33 h 0,050 mm 0,0 UV-I 20 W/m 3,4 C 6,1 C 4,3 km/h (1 Bft) 98,43 %
03.11.2016 17:00 3,7 C 90 % 1022,2 hPa 0,0 l/m 1,2 km/h (1 Bft) SW 0,00 h 0,000 mm 0,0 UV-I 0 W/m 2,2 C 3,7 C 2,2 km/h (1 Bft) 99,19 %
03.11.2016 18:00 2,6 C 93 % 1022,4 hPa 0,0 l/m 1,1 km/h (1 Bft) SW 0,00 h 0,000 mm 0,0 UV-I 0 W/m 1,5 C 2,6 C 2,3 km/h (1 Bft) 98,56 %
03.11.2016 19:00 2,2 C 94 % 1022,4 hPa 0,0 l/m 1,4 km/h (1 Bft) SW 0,00 h 0,000 mm 0,0 UV-I 0 W/m 1,3 C 2,2 C 2,9 km/h (1 Bft) 99,61 %
03.11.2016 20:00 1,8 C 94 % 1022,5 hPa 0,0 l/m 1,6 km/h (1 Bft) S-SO 0,00 h 0,000 mm 0,0 UV-I 0 W/m 1,0 C 1,8 C 3,3 km/h (1 Bft) 97,74 %
03.11.2016 21:00 0,9 C 95 % 1022,4 hPa 0,0 l/m 1,3 km/h (1 Bft) S-SO 0,00 h 0,000 mm 0,0 UV-I 0 W/m 0,2 C 0,9 C 2,7 km/h (1 Bft) 98,91 %
03.11.2016 22:00 0,3 C 96 % 1022,4 hPa 0,0 l/m 3,1 km/h (1 Bft) NO 0,00 h 0,000 mm 0,0 UV-I 0 W/m -0,3 C 0,3 C 4,4 km/h (1 Bft) 97,42 %
03.11.2016 23:00 0,6 C 97 % 1022,0 hPa 0,0 l/m 3,1 km/h (1 Bft) NO 0,00 h 0,000 mm 0,0 UV-I 0 W/m 0,2 C 0,6 C 4,5 km/h (1 Bft) 99,34 %
04.11.2016 00:00 0,3 C 97 % 1021,4 hPa 0,0 l/m 3,8 km/h (1 Bft) O-NO 0,00 h 0,000 mm 0,0 UV-I 0 W/m -0,1 C 0,3 C 5,9 km/h (2 Bft) 95,47 %
04.11.2016 01:00 -0,4 C 97 % 1021,2 hPa 0,0 l/m 3,1 km/h (1 Bft) NO 0,00 h 0,000 mm 0,0 UV-I 0 W/m -0,9 C -0,4 C 4,9 km/h (1 Bft) 98,54 %
04.11.2016 02:00 -0,9 C 97 % 1021,0 hPa 0,0 l/m 2,5 km/h (1 Bft) O-NO 0,00 h 0,000 mm 0,0 UV-I 0 W/m -1,3 C -0,9 C 4,0 km/h (1 Bft) 98,84 %
04.11.2016 03:00 -1,2 C 98 % 1020,7 hPa 0,0 l/m 1,3 km/h (1 Bft) NO 0,00 h 0,000 mm 0,0 UV-I 0 W/m -1,5 C -1,2 C 2,5 km/h (1 Bft) 98,17 %
04.11.2016 04:00 -1,1 C 98 % 1020,5 hPa 0,0 l/m 3,5 km/h (1 Bft) O-NO 0,00 h 0,000 mm 0,0 UV-I 0 W/m -1,4 C -1,1 C 5,2 km/h (1 Bft) 99,08 %
04.11.2016 05:00 -1,0 C 98 % 1020,1 hPa 0,0 l/m 1,1 km/h (1 Bft) O-NO 0,00 h 0,000 mm 0,0 UV-I 0 W/m -1,3 C -1,0 C 2,8 km/h (1 Bft) 98,18 %
04.11.2016 06:00 -1,4 C 98 % 1019,9 hPa 0,0 l/m 0,7 km/h (0 Bft) S 0,00 h 0,000 mm 0,0 UV-I 5 W/m -1,7 C -1,4 C 1,9 km/h (1 Bft) 99,05 %
04.11.2016 07:00 -1,7 C 98 % 1019,9 hPa 0,0 l/m 0,5 km/h (0 Bft) N-NO 0,03 h 0,000 mm 0,0 UV-I 20 W/m -1,9 C -1,7 C 1,7 km/h (1 Bft) 98,41 %
04.11.2016 08:00 -1,6 C 98 % 1019,7 hPa 0,0 l/m 1,0 km/h (0 Bft) NO 0,00 h 0,000 mm 0,0 UV-I 82 W/m -1,8 C -1,6 C 2,3 km/h (1 Bft) 99,56 %
04.11.2016 09:00 -1,0 C 98 % 1019,5 hPa 0,2 l/m 1,4 km/h (1 Bft) O-NO 0,00 h 0,025 mm 0,0 UV-I 131 W/m -1,2 C -1,0 C 2,9 km/h (1 Bft) 97,59 %
04.11.2016 10:00 -0,2 C 98 % 1019,4 hPa 0,0 l/m 2,4 km/h (1 Bft) NO 0,00 h 0,051 mm 0,5 UV-I 147 W/m -0,5 C -0,2 C 4,6 km/h (1 Bft) 99,65 %
04.11.2016 11:00 0,2 C 98 % 1018,9 hPa 0,0 l/m 4,8 km/h (1 Bft) O-NO 0,00 h 0,051 mm 0,6 UV-I 166 W/m -0,0 C 0,0 C 7,6 km/h (2 Bft) 97,59 %
04.11.2016 12:00 1,0 C 98 % 1018,3 hPa 0,0 l/m 3,7 km/h (1 Bft) O-NO 0,00 h 0,051 mm 0,6 UV-I 174 W/m 0,7 C 0,8 C 6,4 km/h (2 Bft) 99,47 %
04.11.2016 13:00 2,0 C 98 % 1017,5 hPa 0,0 l/m 2,1 km/h (1 Bft) SO 0,23 h 0,051 mm 0,5 UV-I 199 W/m 1,7 C 2,0 C 4,4 km/h (1 Bft) 98,20 %
04.11.2016 14:00 2,6 C 96 % 1017,1 hPa 0,0 l/m 1,4 km/h (1 Bft) S-SO 0,57 h 0,076 mm 0,1 UV-I 178 W/m 2,0 C 2,6 C 3,5 km/h (1 Bft) 99,46 %
04.11.2016 15:00 3,2 C 94 % 1016,3 hPa 0,0 l/m 1,6 km/h (1 Bft) S-SO 0,93 h 0,076 mm 0,0 UV-I 145 W/m 2,3 C 3,2 C 3,8 km/h (1 Bft) 99,10 %
04.11.2016 16:00 2,5 C 95 % 1015,7 hPa 0,0 l/m 0,6 km/h (0 Bft) SO 0,50 h 0,051 mm 0,0 UV-I 23 W/m 1,7 C 2,5 C 2,1 km/h (1 Bft) 97,36 %
04.11.2016 17:00 0,9 C 96 % 1015,6 hPa 0,0 l/m 0,6 km/h (0 Bft) SO 0,00 h 0,000 mm 0,0 UV-I 0 W/m 0,3 C 0,9 C 1,7 km/h (1 Bft) 99,13 %
04.11.2016 18:00 0,4 C 97 % 1015,6 hPa 0,0 l/m 0,8 km/h (0 Bft) SO 0,00 h 0,000 mm 0,0 UV-I 0 W/m -0,0 C 0,4 C 2,0 km/h (1 Bft) 98,46 %
04.11.2016 19:00 0,2 C 97 % 1015,2 hPa 0,0 l/m 1,0 km/h (0 Bft) O-SO 0,00 h 0,000 mm 0,0 UV-I 0 W/m -0,2 C 0,2 C 2,1 km/h (1 Bft) 98,67 %
04.11.2016 20:00 0,7 C 97 % 1015,0 hPa 0,0 l/m 4,6 km/h (1 Bft) O-NO 0,00 h 0,000 mm 0,0 UV-I 0 W/m 0,3 C 0,6 C 7,1 km/h (2 Bft) 98,62 %
04.11.2016 21:00 0,9 C 98 % 1014,7 hPa 0,0 l/m 5,2 km/h (1 Bft) O-NO 0,00 h 0,000 mm 0,0 UV-I 0 W/m 0,6 C 0,8 C 8,2 km/h (2 Bft) 97,89 %
04.11.2016 22:00 1,1 C 98 % 1014,3 hPa 0,0 l/m 5,5 km/h (1 Bft) O-NO 0,00 h 0,000 mm 0,0 UV-I 0 W/m 0,8 C 0,9 C 8,5 km/h (2 Bft) 99,12 %
04.11.2016 23:00 1,2 C 98 % 1014,0 hPa 0,0 l/m 5,5 km/h (1 Bft) NO 0,00 h 0,000 mm 0,0 UV-I 0 W/m 0,9 C 1,0 C 8,8 km/h (2 Bft) 98,18 %
05.11.2016 00:00 1,2 C 98 % 1013,4 hPa 0,0 l/m 3,8 km/h (1 Bft) O-SO 0,00 h 0,000 mm 0,0 UV-I 0 W/m 1,0 C 1,2 C 7,1 km/h (2 Bft) 99,15 %
05.11.2016 01:00 1,2 C 98 % 1013,0 hPa 0,0 l/m 4,1 km/h (1 Bft) O-SO 0,00 h 0,000 mm 0,0 UV-I 0 W/m 0,9 C 1,2 C 7,0 km/h (2 Bft) 98,25 %
05.11.2016 02:00 1,2 C 98 % 1012,4 hPa 0,0 l/m 4,3 km/h (1 Bft) O-NO 0,00 h 0,000 mm 0,0 UV-I 0 W/m 0,9 C 1,0 C 6,7 km/h (2 Bft) 99,07 %
05.11.2016 03:00 1,3 C 99 % 1011,8 hPa 0,0 l/m 4,8 km/h (1 Bft) O-NO 0,00 h 0,000 mm 0,0 UV-I 0 W/m 1,1 C 1,2 C 7,5 km/h (2 Bft) 98,03 %
05.11.2016 04:00 1,1 C 98 % 1011,3 hPa 0,0 l/m 5,2 km/h (1 Bft) O-NO 0,00 h 0,000 mm 0,0 UV-I 0 W/m 0,9 C 0,9 C 9,0 km/h (2 Bft) 99,21 %
05.11.2016 05:00 1,2 C 99 % 1010,5 hPa 0,0 l/m 5,7 km/h (1 Bft) O-NO 0,00 h 0,000 mm 0,0 UV-I 0 W/m 1,0 C 0,9 C 8,7 km/h (2 Bft) 97,58 %
05.11.2016 06:00 1,2 C 98 % 1010,1 hPa 0,0 l/m 5,4 km/h (1 Bft) NO 0,00 h 0,000 mm 0,0 UV-I 4 W/m 1,0 C 1,0 C 8,2 km/h (2 Bft) 99,27 %
05.11.2016 07:00 1,1 C 99 % 1010,0 hPa 0,0 l/m 6,0 km/h (2 Bft) O-NO 0,00 h 0,000 mm 0,0 UV-I 16 W/m 0,9 C 0,6 C 9,0 km/h (2 Bft) 97,59 %
05.11.2016 08:00 1,2 C 98 % 1009,5 hPa 0,0 l/m 7,2 km/h (2 Bft) O-NO 0,00 h 0,000 mm 0,0 UV-I 48 W/m 0,9 C 0,1 C 10,7 km/h (2 Bft) 99,50 %
05.11.2016 09:00 1,4 C 99 % 1008,5 hPa 0,0 l/m 10,5 km/h (2 Bft) NO 0,00 h 0,025 mm 0,0 UV-I 67 W/m 1,3 C -2,1 C 15,4 km/h (3 Bft) 97,77 %
05.11.2016 10:00 1,9 C 99 % 1007,6 hPa 0,0 l/m 11,5 km/h (2 Bft) O-NO 0,00 h 0,026 mm 0,0 UV-I 88 W/m 1,8 C -2,3 C 16,6 km/h (3 Bft) 98,93 %
05.11.2016 11:00 2,3 C 99 % 1006,2 hPa 0,0 l/m 11,3 km/h (2 Bft) O-NO 0,00 h 0,025 mm 0,2 UV-I 89 W/m 2,2 C -1,7 C 16,6 km/h (3 Bft) 97,78 %
05.11.2016 12:00 2,6 C 99 % 1005,2 hPa 0,0 l/m 11,5 km/h (2 Bft) O-NO 0,00 h 0,026 mm 0,0 UV-I 102 W/m 2,4 C -1,6 C 16,3 km/h (3 Bft) 99,21 %
05.11.2016 13:00 3,3 C 99 % 1003,7 hPa 0,0 l/m 13,2 km/h (3 Bft) O-NO 0,00 h 0,050 mm 0,4 UV-I 126 W/m 3,1 C -1,9 C 18,8 km/h (3 Bft) 98,23 %
05.11.2016 14:00 3,6 C 97 % 1002,5 hPa 0,0 l/m 12,8 km/h (3 Bft) O-NO 0,00 h 0,051 mm 0,0 UV-I 74 W/m 3,2 C -1,3 C 18,2 km/h (3 Bft) 99,29 %
05.11.2016 15:00 3,5 C 95 % 1002,1 hPa 0,0 l/m 10,1 km/h (2 Bft) O-NO 0,00 h 0,026 mm 0,0 UV-I 29 W/m 2,8 C 0,5 C 15,5 km/h (3 Bft) 97,61 %
05.11.2016 16:00 3,3 C 95 % 1001,6 hPa 0,0 l/m 8,8 km/h (2 Bft) NO 0,00 h 0,025 mm 0,0 UV-I 13 W/m 2,5 C 1,1 C 13,3 km/h (3 Bft) 99,56 %
05.11.2016 17:00 2,9 C 95 % 1001,0 hPa 0,0 l/m 8,8 km/h (2 Bft) NO 0,00 h 0,000 mm 0,0 UV-I 0 W/m 2,2 C 0,8 C 13,2 km/h (3 Bft) 97,70 %
05.11.2016 18:00 2,5 C 96 % 1000,4 hPa 0,0 l/m 2,9 km/h (1 Bft) NO 0,00 h 0,000 mm 0,0 UV-I 0 W/m 1,9 C 2,5 C 5,0 km/h (1 Bft) 99,04 %
05.11.2016 19:00 2,0 C 96 % 999,9 hPa 0,0 l/m 4,7 km/h (1 Bft) O-SO 0,00 h 0,000 mm 0,0 UV-I 0 W/m 1,5 C 1,4 C 7,9 km/h (2 Bft) 97,97 %
05.11.2016 20:00 2,3 C 97 % 999,9 hPa 0,0 l/m 4,0 km/h (1 Bft) SW 0,00 h 0,000 mm 0,0 UV-I 0 W/m 1,8 C 2,2 C 6,6 km/h (2 Bft) 99,15 %
05.11.2016 21:00 2,6 C 97 % 1000,0 hPa 0,0 l/m 2,8 km/h (1 Bft) W-SW 0,00 h 0,000 mm 0,0 UV-I 0 W/m 2,1 C 2,6 C 5,2 km/h (1 Bft) 98,08 %
05.11.2016 22:00 2,3 C 98 % 1000,1 hPa 0,0 l/m 0,8 km/h (0 Bft) W-SW 0,00 h 0,000 mm 0,0 UV-I 0 W/m 1,9 C 2,3 C 2,1 km/h (1 Bft) 99,15 %
05.11.2016 23:00 2,5 C 98 % 1000,5 hPa 0,0 l/m 0,9 km/h (0 Bft) S 0,00 h 0,000 mm 0,0 UV-I 0 W/m 2,2 C 2,5 C 2,3 km/h (1 Bft) 97,33 %
06.11.2016 00:00 3,1 C 98 % 1000,9 hPa 0,4 l/m 3,1 km/h (1 Bft) W-SW 0,00 h 0,000 mm 0,0 UV-I 0 W/m 2,9 C 3,1 C 5,3 km/h (1 Bft) 99,30 %
06.11.2016 01:00 3,7 C 98 % 1001,0 hPa 0,6 l/m 4,4 km/h (1 Bft) S-SW 0,00 h 0,000 mm 0,0 UV-I 0 W/m 3,4 C 3,7 C 6,6 km/h (2 Bft) 98,35 %
06.11.2016 02:00 4,6 C 98 % 1000,9 hPa 0,8 l/m 1,6 km/h (1 Bft) S-SW 0,00 h 0,000 mm 0,0 UV-I 0 W/m 4,3 C 4,6 C 3,1 km/h (1 Bft) 99,10 %
06.11.2016 03:00 4,9 C 98 % 1000,7 hPa 0,6 l/m 1,4 km/h (1 Bft) S-SW 0,00 h 0,000 mm 0,0 UV-I 0 W/m 4,6 C 4,9 C 2,2 km/h (1 Bft) 98,17 %
06.11.2016 04:00 4,9 C 98 % 1000,9 hPa 0,6 l/m 0,2 km/h (0 Bft) S-SW 0,00 h 0,000 mm 0,0 UV-I 0 W/m 4,6 C 4,9 C 0,8 km/h (0 Bft) 99,12 %
06.11.2016 05:00 5,1 C 98 % 1000,5 hPa 0,4 l/m 0,1 km/h (0 Bft) S-SW 0,00 h 0,000 mm 0,0 UV-I 0 W/m 4,9 C 5,1 C 0,9 km/h (0 Bft) 98,82 %
06.11.2016 06:00 5,3 C 99 % 1000,3 hPa 0,2 l/m 2,4 km/h (1 Bft) W 0,00 h 0,000 mm 0,0 UV-I 0 W/m 5,1 C 5,3 C 4,0 km/h (1 Bft) 98,62 %
06.11.2016 07:00 5,6 C 99 % 1000,3 hPa 0,2 l/m 1,0 km/h (0 Bft) SW 0,00 h 0,000 mm 0,0 UV-I 15 W/m 5,5 C 5,6 C 2,5 km/h (1 Bft) 98,92 %
06.11.2016 08:00 6,0 C 99 % 1000,4 hPa 0,4 l/m 1,0 km/h (0 Bft) SW 0,00 h 0,000 mm 0,0 UV-I 45 W/m 5,8 C 6,0 C 2,3 km/h (1 Bft) 98,43 %
06.11.2016 09:00 6,2 C 98 % 999,8 hPa 0,2 l/m 0,7 km/h (0 Bft) W 0,00 h 0,025 mm 0,0 UV-I 38 W/m 5,9 C 6,2 C 2,1 km/h (1 Bft) 98,81 %
06.11.2016 10:00 5,9 C 98 % 1000,0 hPa 2,2 l/m 2,6 km/h (1 Bft) W 0,00 h 0,026 mm 0,0 UV-I 29 W/m 5,6 C 5,9 C 6,1 km/h (2 Bft) 98,69 %
06.11.2016 11:00 5,9 C 99 % 1000,2 hPa 2,0 l/m 8,2 km/h (2 Bft) W-SW 0,00 h 0,000 mm 0,0 UV-I 52 W/m 5,7 C 4,3 C 12,8 km/h (3 Bft) 99,16 %
06.11.2016 12:00 5,9 C 98 % 1000,1 hPa 1,6 l/m 10,1 km/h (2 Bft) W-SW 0,00 h 0,025 mm 0,0 UV-I 71 W/m 5,6 C 3,1 C 15,7 km/h (3 Bft) 98,07 %
06.11.2016 13:00 5,4 C 97 % 1000,1 hPa 0,6 l/m 10,9 km/h (2 Bft) W-SW 0,00 h 0,026 mm 0,0 UV-I 55 W/m 4,9 C 1,9 C 16,8 km/h (3 Bft) 99,15 %
06.11.2016 14:00 4,5 C 97 % 1000,7 hPa 2,0 l/m 12,7 km/h (3 Bft) W-SW 0,00 h 0,025 mm 0,0 UV-I 21 W/m 4,0 C -0,1 C 19,8 km/h (3 Bft) 97,63 %
06.11.2016 15:00 2,9 C 96 % 1001,7 hPa 3,0 l/m 13,5 km/h (3 Bft) W-SW 0,00 h 0,000 mm 0,0 UV-I 14 W/m 2,3 C -2,5 C 21,2 km/h (4 Bft) 98,87 %
06.11.2016 16:00 2,0 C 96 % 1002,1 hPa 1,4 l/m 10,6 km/h (2 Bft) SW 0,00 h 0,000 mm 0,0 UV-I 5 W/m 1,5 C -1,6 C 16,7 km/h (3 Bft) 97,87 %
06.11.2016 17:00 1,5 C 97 % 1002,4 hPa 1,0 l/m 8,8 km/h (2 Bft) W-SW 0,00 h 0,000 mm 0,0 UV-I 0 W/m 1,1 C -0,7 C 13,4 km/h (3 Bft) 99,23 %
06.11.2016 18:00 0,6 C 97 % 1002,7 hPa 0,0 l/m 6,3 km/h (2 Bft) SW 0,00 h 0,000 mm 0,0 UV-I 0 W/m 0,2 C 0,3 C 9,4 km/h (2 Bft) 97,63 %
06.11.2016 19:00 0,7 C 98 % 1002,5 hPa 0,8 l/m 5,7 km/h (1 Bft) SW 0,00 h 0,000 mm 0,0 UV-I 0 W/m 0,4 C 0,4 C 8,3 km/h (2 Bft) 99,17 %
06.11.2016 20:00 1,1 C 98 % 1003,1 hPa 1,4 l/m 6,2 km/h (2 Bft) W-SW 0,00 h 0,000 mm 0,0 UV-I 0 W/m 0,8 C 0,8 C 9,6 km/h (2 Bft) 97,81 %
06.11.2016 21:00 1,5 C 98 % 1003,4 hPa 0,8 l/m 3,1 km/h (1 Bft) SW 0,00 h 0,000 mm 0,0 UV-I 0 W/m 1,2 C 1,5 C 4,9 km/h (1 Bft) 99,14 %
06.11.2016 22:00 1,8 C 98 % 1003,5 hPa 0,8 l/m 5,9 km/h (2 Bft) W-SW 0,00 h 0,000 mm 0,0 UV-I 0 W/m 1,5 C 1,5 C 9,3 km/h (2 Bft) 98,24 %
06.11.2016 23:00 2,0 C 98 % 1003,7 hPa 0,6 l/m 5,5 km/h (1 Bft) SW 0,00 h 0,000 mm 0,0 UV-I 0 W/m 1,7 C 1,8 C 8,2 km/h (2 Bft) 99,43 %
Min-Datum _ 04.11.16 31.10.16 05.11.16 - 31.10.16 - - - - - 04.11.16 05.11.16 31.10.16 04.11.16
_ Min-Zeit 07:30 13:50 19:44 - 00:58 - - - - - 08:02 10:24 01:00 00:02
Minimum _ -1,8 C 72 % 999,4 hPa - 0,0 km/h (0 Bft) - - - - - -2,1 C -5,8 C 0,0 km/h (0 Bft) 9,09 %
Max-Datum _ 01.11.16 31.10.16 31.10.16 06.11.16 02.11.16 - 01.11.16 31.10.16 31.10.16 31.10.16 02.11.16 01.11.16 02.11.16 31.10.16
_ Max-Zeit 14:08 10:16 09:56 15:00 22:02 - 11:12 13:00 10:56 10:56 11:32 14:08 12:04 00:04
Maximum _ 10,8 C 99 % 1029,9 hPa 3,0 l/m 21,1 km/h
SW (4 Bft)
- 0,10 h 0,204 mm 1,4 UV-I 637 W/m 8,3 C 10,8 C 40,2 km/h
W (6 Bft)
100,00 %
Durchschnitt _ 3,9 C 94 % 1016,0 hPa #25,2 l/m 5,2 km/h (1 Bft) W-SW #18:18 h #4,090 mm 0,7 UV-I 114 W/m 3,0 C 2,8 C 8,4 km/h (2 Bft) 98,61 %